Terminal Aerodrome Forecast
Issued by NWS

Home | Current Version | Previous Version | Text Only | Print | Product List | Glossary On
Versions: 1 2 3 4 5 6 7 8 9 10 11 12 13 14 15 16 17 18
000
FTUS46 KMTR 262345
TAFOAK
TAF
KOAK 262345Z 2700/2806 27015G20KT P6SM FEW012
      TEMPO 2704/2707 BKN011
     FM270700 29010KT P6SM OVC010
     FM271600 29006KT P6SM SCT015
     FM271900 28016G22KT P6SM FEW020
     FM280300 28011KT P6SM SCT010=

USA.gov is the U.S. government's official web portal to all federal, state and local government web resources and services.